Time;durP1;ratioP1;P1;durP2;ratioP2;P2;SDS_P1;SDS_P2;PMS_P1;PMS_P2;Temp;Humidity;BMP_temperature;BMP_pressure;BME280_temperature;BME280_humidity;BME280_pressure;Samples;Min_cycle;Max_cycle;Signal;HPM_P1;HPM_P2
2022/08/17 00:00:59;;;;;;;0.20;0.20;;;20.80;99.90;;;;;;5115297;28;20069;-93
2022/08/17 00:03:28;;;;;;;0.10;0.10;;;20.80;99.90;;;;;;5106277;28;20043;-93
2022/08/17 00:06:06;;;;;;;0.13;0.13;;;20.80;99.90;;;;;;5141886;28;20023;-92
2022/08/17 00:08:58;;;;;;;0.20;0.20;;;20.70;99.90;;;;;;5123259;28;20043;-92
2022/08/17 00:11:37;;;;;;;0.20;0.20;;;20.70;99.90;;;;;;5099346;28;20483;-92
2022/08/17 00:14:10;;;;;;;0.20;0.20;;;20.70;99.90;;;;;;5118297;28;20114;-93
2022/08/17 00:16:48;;;;;;;0.20;0.20;;;20.60;99.90;;;;;;5099423;28;20118;-93
2022/08/17 00:19:17;;;;;;;0.13;0.13;;;20.70;99.90;;;;;;5117873;28;20145;-93
2022/08/17 00:21:46;;;;;;;0.20;0.20;;;20.50;99.90;;;;;;5099585;28;20158;-92
2022/08/17 00:24:12;;;;;;;0.20;0.20;;;20.60;99.90;;;;;;5099123;28;20048;-93
2022/08/17 00:26:37;;;;;;;0.10;0.10;;;20.60;99.90;;;;;;5117519;28;20038;-93
2022/08/17 00:29:04;;;;;;;0.20;0.20;;;20.60;99.90;;;;;;5099700;28;20039;-93
2022/08/17 00:31:30;;;;;;;0.15;0.15;;;20.60;99.90;;;;;;5096071;28;20430;-93
2022/08/17 00:33:58;;;;;;;0.20;0.20;;;20.60;99.90;;;;;;5097131;28;20101;-92
2022/08/17 00:36:24;;;;;;;0.20;0.20;;;20.60;99.90;;;;;;5095295;28;20043;-92
2022/08/17 00:38:50;;;;;;;0.20;0.20;;;20.60;99.90;;;;;;5094851;28;20047;-93
2022/08/17 00:41:20;;;;;;;0.10;0.10;;;20.50;99.90;;;;;;5095563;28;20391;-92
2022/08/17 00:43:49;;;;;;;0.20;0.20;;;20.50;99.90;;;;;;5098974;28;20407;-91
2022/08/17 00:46:25;;;;;;;0.20;0.20;;;20.50;99.90;;;;;;5099655;28;20053;-93
2022/08/17 00:48:51;;;;;;;0.20;0.20;;;20.50;99.90;;;;;;5096122;28;20044;-93
2022/08/17 00:51:37;;;;;;;0.10;0.10;;;20.50;99.90;;;;;;5095141;28;20450;-93
2022/08/17 00:54:17;;;;;;;0.20;0.20;;;20.50;99.90;;;;;;5096480;28;20593;-93
2022/08/17 00:56:51;;;;;;;0.20;0.20;;;20.40;99.90;;;;;;5095399;28;20052;-93
2022/08/17 00:59:20;;;;;;;0.20;0.20;;;20.40;99.90;;;;;;5096660;28;20094;-93
2022/08/17 01:01:48;;;;;;;0.10;0.10;;;20.40;99.90;;;;;;5095978;28;20052;-94
2022/08/17 01:04:16;;;;;;;0.20;0.20;;;20.30;99.90;;;;;;5096856;28;20044;-93
2022/08/17 01:06:44;;;;;;;0.20;0.20;;;20.40;99.90;;;;;;5096129;28;20044;-93
2022/08/17 01:09:12;;;;;;;0.20;0.20;;;20.30;99.90;;;;;;5095572;28;20051;-92
2022/08/17 01:11:39;;;;;;;0.20;0.20;;;20.30;99.90;;;;;;5098393;28;20039;-91
2022/08/17 01:14:07;;;;;;;0.20;0.20;;;20.30;99.90;;;;;;5096379;28;20075;-91
2022/08/17 01:16:33;;;;;;;0.20;0.20;;;20.20;99.90;;;;;;5096188;28;20048;-92
2022/08/17 01:19:08;;;;;;;0.20;0.20;;;20.20;99.90;;;;;;5095497;28;20052;-92
2022/08/17 01:21:45;;;;;;;0.20;0.20;;;20.20;99.90;;;;;;5095532;28;20051;-92
2022/08/17 01:24:11;;;;;;;0.20;0.20;;;20.10;99.90;;;;;;5095306;28;20040;-93
2022/08/17 01:26:39;;;;;;;0.20;0.20;;;20.10;99.90;;;;;;5095631;28;20067;-92
2022/08/17 01:29:05;;;;;;;0.20;0.20;;;20.10;99.90;;;;;;5085572;28;20119;-93
2022/08/17 01:31:36;;;;;;;0.20;0.20;;;20.00;99.90;;;;;;5076323;28;20056;-92
2022/08/17 01:34:08;;;;;;;0.20;0.20;;;19.90;99.90;;;;;;5086151;28;20049;-93
2022/08/17 01:36:35;;;;;;;0.10;0.10;;;19.90;99.90;;;;;;5099289;28;20040;-92
2022/08/17 01:39:03;;;;;;;0.20;0.20;;;19.90;99.90;;;;;;5095933;28;20590;-93
2022/08/17 01:41:29;;;;;;;0.20;0.20;;;19.80;99.90;;;;;;5082200;28;20407;-93
2022/08/17 01:44:01;;;;;;;0.20;0.20;;;19.80;99.90;;;;;;5078559;28;20136;-93
2022/08/17 01:46:32;;;;;;;0.20;0.20;;;19.80;99.90;;;;;;5081559;28;20076;-92
2022/08/17 01:48:58;;;;;;;0.20;0.20;;;19.80;99.90;;;;;;5081276;28;20064;-92
2022/08/17 01:51:31;;;;;;;0.20;0.20;;;19.80;99.90;;;;;;5076208;28;20060;-92
2022/08/17 01:54:01;;;;;;;0.20;0.20;;;19.70;99.90;;;;;;5088700;28;20492;-93
2022/08/17 01:56:29;;;;;;;0.20;0.20;;;19.70;99.90;;;;;;5073867;28;20505;-92
2022/08/17 01:58:55;;;;;;;0.20;0.20;;;19.70;99.90;;;;;;5075102;28;20040;-93
2022/08/17 02:01:26;;;;;;;0.10;0.10;;;19.60;99.90;;;;;;5074326;28;20052;-93
2022/08/17 02:03:53;;;;;;;0.20;0.20;;;19.70;99.90;;;;;;5075629;28;20047;-92
2022/08/17 02:06:19;;;;;;;0.20;0.20;;;19.60;99.90;;;;;;5098553;28;20043;-92
2022/08/17 02:08:45;;;;;;;0.10;0.10;;;19.60;99.90;;;;;;5106501;28;20036;-93
2022/08/17 02:11:15;;;;;;;0.20;0.20;;;19.60;99.90;;;;;;5114311;28;20071;-94
2022/08/17 02:13:45;;;;;;;0.15;0.15;;;19.60;99.90;;;;;;5119000;28;20046;-93
2022/08/17 02:16:11;;;;;;;0.20;0.20;;;19.60;99.90;;;;;;5119268;28;20018;-95
2022/08/17 02:18:37;;;;;;;0.20;0.20;;;19.60;99.90;;;;;;5108522;28;20036;-93
2022/08/17 02:21:03;;;;;;;0.17;0.17;;;19.60;99.90;;;;;;5100428;28;20039;-93
2022/08/17 02:23:33;;;;;;;0.10;0.10;;;19.60;99.90;;;;;;5098116;28;20044;-93
2022/08/17 02:25:59;;;;;;;0.20;0.20;;;19.60;99.90;;;;;;5104106;28;20414;-94
2022/08/17 02:28:27;;;;;;;0.15;0.15;;;19.50;99.90;;;;;;5114991;28;20055;-94
2022/08/17 02:30:53;;;;;;;0.20;0.20;;;19.50;99.90;;;;;;5118551;28;20062;-94
2022/08/17 02:33:19;;;;;;;0.20;0.20;;;19.50;99.90;;;;;;5107308;28;20087;-94
2022/08/17 02:35:51;;;;;;;0.10;0.10;;;19.50;99.90;;;;;;5112439;28;20036;-93
2022/08/17 02:38:16;;;;;;;0.20;0.20;;;19.50;99.90;;;;;;5101677;28;20044;-94
2022/08/17 02:40:42;;;;;;;0.20;0.20;;;19.50;99.90;;;;;;5101251;28;20043;-94
2022/08/17 02:43:08;;;;;;;0.20;0.20;;;19.50;99.90;;;;;;5104474;28;20059;-93
2022/08/17 02:45:34;;;;;;;0.20;0.20;;;19.40;99.90;;;;;;5103638;28;20066;-93
2022/08/17 02:48:01;;;;;;;0.20;0.20;;;19.40;99.90;;;;;;5109858;28;20055;-94
2022/08/17 02:50:26;;;;;;;0.10;0.10;;;19.40;99.90;;;;;;5110930;28;20048;-94
2022/08/17 02:52:53;;;;;;;0.15;0.15;;;19.40;99.90;;;;;;5118100;28;20075;-95
2022/08/17 02:55:22;;;;;;;0.20;0.20;;;19.40;99.90;;;;;;5115209;28;20062;-94
2022/08/17 02:57:49;;;;;;;0.20;0.20;;;19.40;99.90;;;;;;5110319;28;20040;-95
2022/08/17 03:00:25;;;;;;;0.15;0.15;;;19.40;99.90;;;;;;5110311;28;20048;-94
2022/08/17 03:02:51;;;;;;;0.20;0.20;;;19.40;99.90;;;;;;5114418;28;20534;-94
2022/08/17 03:05:21;;;;;;;0.20;0.20;;;19.40;99.90;;;;;;5116640;28;20040;-95
2022/08/17 03:07:47;;;;;;;0.20;0.20;;;19.30;99.90;;;;;;5119445;28;20027;-94
2022/08/17 03:10:13;;;;;;;0.17;0.17;;;19.30;99.90;;;;;;5110485;28;20116;-94
2022/08/17 03:12:40;;;;;;;0.20;0.20;;;19.30;99.90;;;;;;5109611;28;20036;-94
2022/08/17 03:15:10;;;;;;;0.20;0.20;;;19.40;99.90;;;;;;5096329;28;20075;-94
2022/08/17 03:17:36;;;;;;;0.20;0.20;;;19.30;99.90;;;;;;5109290;28;20044;-93
2022/08/17 03:20:02;;;;;;;0.20;0.20;;;19.30;99.90;;;;;;5110681;28;20419;-94
2022/08/17 03:22:28;;;;;;;0.20;0.20;;;19.30;99.90;;;;;;5102266;28;20040;-93
2022/08/17 03:24:55;;;;;;;0.20;0.20;;;19.30;99.90;;;;;;5093387;28;20051;-94
2022/08/17 03:27:21;;;;;;;0.20;0.20;;;19.30;99.90;;;;;;5079437;28;20391;-94
2022/08/17 03:29:49;;;;;;;0.20;0.20;;;19.30;99.90;;;;;;5074551;28;20036;-94
2022/08/17 03:32:15;;;;;;;0.20;0.20;;;19.30;99.90;;;;;;5074715;28;20136;-94
2022/08/17 03:34:42;;;;;;;0.20;0.20;;;19.30;99.90;;;;;;5087224;28;20040;-94
2022/08/17 03:37:08;;;;;;;0.20;0.20;;;19.10;99.90;;;;;;5086767;28;20032;-94
2022/08/17 03:39:36;;;;;;;0.13;0.13;;;19.10;99.90;;;;;;5078092;28;20100;-93
2022/08/17 03:42:26;;;;;;;0.17;0.17;;;19.10;99.90;;;;;;5078258;28;20084;-93
2022/08/17 03:44:54;;;;;;;0.15;0.15;;;19.10;99.90;;;;;;5079938;28;20045;-92
2022/08/17 03:58:21;;;;;;;0.20;0.20;;;18.90;99.90;;;;;;5087411;28;20417;-93
2022/08/17 04:00:48;;;;;;;0.10;0.10;;;18.90;99.90;;;;;;5078463;28;20052;-93
2022/08/17 04:03:14;;;;;;;0.20;0.20;;;18.90;99.90;;;;;;5076840;28;20040;-94
2022/08/17 04:05:40;;;;;;;0.20;0.20;;;18.80;99.90;;;;;;5077917;28;20492;-93
2022/08/17 04:08:06;;;;;;;0.20;0.20;;;18.80;99.90;;;;;;5077769;28;20045;-94
2022/08/17 04:10:32;;;;;;;0.10;0.10;;;18.80;99.90;;;;;;5076078;28;20076;-94
2022/08/17 04:12:58;;;;;;;0.10;0.10;;;18.80;99.90;;;;;;5077979;28;20045;-93
2022/08/17 04:15:24;;;;;;;0.20;0.20;;;18.80;99.90;;;;;;5075747;28;20124;-93
2022/08/17 04:17:50;;;;;;;0.20;0.20;;;18.80;99.90;;;;;;5095628;28;20043;-93
2022/08/17 04:20:19;;;;;;;0.15;0.15;;;18.80;99.90;;;;;;5079273;28;20044;-93
2022/08/17 04:23:08;;;;;;;0.20;0.20;;;18.80;99.90;;;;;;5076397;28;20114;-94
2022/08/17 04:25:37;;;;;;;0.20;0.20;;;18.70;99.90;;;;;;5076095;28;20057;-93
2022/08/17 04:28:04;;;;;;;0.20;0.20;;;18.70;99.90;;;;;;5076262;28;20048;-93
2022/08/17 04:30:34;;;;;;;0.20;0.20;;;18.70;99.90;;;;;;5076490;28;20053;-93
2022/08/17 04:33:05;;;;;;;0.20;0.20;;;18.70;99.90;;;;;;5076377;28;20561;-93
2022/08/17 04:35:40;;;;;;;0.20;0.20;;;18.70;99.90;;;;;;5081480;28;20054;-93
2022/08/17 04:38:08;;;;;;;0.10;0.10;;;18.70;99.90;;;;;;5114666;28;20044;-93
2022/08/17 04:43:22;;;;;;;0.17;0.17;;;18.70;99.90;;;;;;5095760;28;20044;-93
2022/08/17 04:45:51;;;;;;;0.20;0.20;;;18.80;99.90;;;;;;5097100;28;20468;-94
2022/08/17 04:48:16;;;;;;;0.20;0.20;;;18.80;99.90;;;;;;5096085;28;20536;-93
2022/08/17 04:50:48;;;;;;;0.20;0.20;;;18.70;99.90;;;;;;5095954;28;20126;-93
2022/08/17 04:53:15;;;;;;;0.20;0.20;;;18.80;99.90;;;;;;5095989;28;20048;-93
2022/08/17 04:55:41;;;;;;;0.20;0.20;;;18.80;99.90;;;;;;5096534;28;20048;-93
2022/08/17 04:58:08;;;;;;;0.20;0.20;;;18.80;99.90;;;;;;5097103;28;20047;-94
2022/08/17 05:00:34;;;;;;;0.20;0.20;;;18.80;99.90;;;;;;5112190;28;20035;-91
2022/08/17 05:03:00;;;;;;;0.20;0.20;;;18.80;99.90;;;;;;5101763;28;20047;-93
2022/08/17 05:05:32;;;;;;;0.20;0.20;;;18.90;99.90;;;;;;5095964;28;20048;-92
2022/08/17 05:08:02;;;;;;;0.20;0.20;;;18.80;99.90;;;;;;5096950;28;20079;-93
2022/08/17 05:10:31;;;;;;;0.20;0.20;;;18.90;99.90;;;;;;5095068;28;20054;-92
2022/08/17 05:13:07;;;;;;;0.20;0.20;;;18.90;99.90;;;;;;5096616;28;20086;-93
2022/08/17 05:15:36;;;;;;;0.20;0.20;;;18.90;99.90;;;;;;5096689;28;20079;-93
2022/08/17 05:18:02;;;;;;;0.20;0.20;;;19.00;99.90;;;;;;5096689;28;20047;-92
2022/08/17 05:20:28;;;;;;;0.20;0.20;;;19.00;99.90;;;;;;5095251;28;20060;-93
2022/08/17 05:22:56;;;;;;;0.20;0.20;;;19.10;99.90;;;;;;5102884;28;20042;-93
2022/08/17 05:25:25;;;;;;;0.20;0.20;;;19.10;99.90;;;;;;5095795;28;20170;-93
2022/08/17 05:27:52;;;;;;;0.20;0.20;;;19.10;99.90;;;;;;5100736;28;20036;-93
2022/08/17 05:30:18;;;;;;;0.20;0.20;;;19.10;99.90;;;;;;5102741;28;20046;-93
2022/08/17 05:32:58;;;;;;;0.20;0.20;;;19.10;99.90;;;;;;5110609;28;20056;-93
2022/08/17 05:35:26;;;;;;;0.20;0.20;;;19.20;99.90;;;;;;5098685;28;20052;-94
2022/08/17 05:37:52;;;;;;;0.10;0.10;;;19.20;99.90;;;;;;5098779;28;20065;-93
2022/08/17 05:40:19;;;;;;;0.10;0.10;;;19.20;99.90;;;;;;5115931;28;20051;-94
2022/08/17 05:42:45;;;;;;;0.10;0.10;;;19.30;99.90;;;;;;5102207;28;20047;-94
2022/08/17 05:45:12;;;;;;;0.20;0.20;;;19.30;99.90;;;;;;5116909;28;20047;-93
2022/08/17 05:47:38;;;;;;;0.13;0.13;;;19.30;99.90;;;;;;5116555;28;20111;-93
2022/08/17 05:50:09;;;;;;;0.20;0.20;;;19.30;99.90;;;;;;5116967;28;20043;-93
2022/08/17 05:52:54;;;;;;;0.20;0.20;;;19.40;99.90;;;;;;5100889;28;20071;-93
2022/08/17 05:55:43;;;;;;;0.20;0.20;;;19.40;99.90;;;;;;5099798;28;20051;-91
2022/08/17 05:58:47;;;;;;;0.20;0.20;;;19.40;99.90;;;;;;5102022;28;20071;-91
2022/08/17 06:01:42;;;;;;;0.10;0.10;;;19.40;99.90;;;;;;5099037;28;20051;-93
2022/08/17 06:04:13;;;;;;;0.10;0.10;;;19.40;99.90;;;;;;5115040;28;20100;-93
2022/08/17 06:06:44;;;;;;;0.20;0.20;;;19.50;99.90;;;;;;5100480;28;20044;-93
2022/08/17 06:09:34;;;;;;;0.10;0.10;;;19.50;99.90;;;;;;5100733;28;20050;-92
2022/08/17 06:12:20;;;;;;;0.10;0.10;;;19.50;99.90;;;;;;5102355;28;20296;-93
2022/08/17 06:14:57;;;;;;;0.20;0.20;;;19.60;99.90;;;;;;5118274;28;20048;-92
2022/08/17 06:17:23;;;;;;;0.20;0.20;;;19.60;99.90;;;;;;5113313;28;20051;-91
2022/08/17 06:20:09;;;;;;;0.20;0.20;;;19.70;99.90;;;;;;5102886;28;20048;-93
2022/08/17 06:22:40;;;;;;;0.20;0.20;;;19.70;99.90;;;;;;5090593;28;20048;-92
2022/08/17 06:25:41;;;;;;;0.20;0.20;;;19.70;99.90;;;;;;5095031;28;20119;-93
2022/08/17 06:28:16;;;;;;;0.20;0.20;;;19.80;99.90;;;;;;5074019;28;20056;-93
2022/08/17 06:31:01;;;;;;;0.20;0.20;;;19.80;99.90;;;;;;5101060;28;20483;-93
2022/08/17 06:33:38;;;;;;;0.20;0.20;;;19.80;99.90;;;;;;5077621;28;20530;-92
2022/08/17 06:36:28;;;;;;;0.20;0.20;;;19.80;99.90;;;;;;5097667;28;20044;-93
2022/08/17 06:39:18;;;;;;;0.20;0.20;;;19.80;99.90;;;;;;5095314;28;20055;-93
2022/08/17 06:41:52;;;;;;;0.20;0.20;;;19.80;99.90;;;;;;5083154;28;20383;-90
2022/08/17 06:44:20;;;;;;;0.20;0.20;;;19.90;99.90;;;;;;5083175;28;20059;-92
2022/08/17 06:46:52;;;;;;;0.20;0.20;;;19.90;99.90;;;;;;5095239;28;20618;-93
2022/08/17 06:49:45;;;;;;;0.20;0.20;;;20.00;99.90;;;;;;5077121;28;20385;-93
2022/08/17 06:52:26;;;;;;;0.17;0.17;;;20.00;99.90;;;;;;5096611;28;20105;-92
2022/08/17 06:55:04;;;;;;;0.20;0.20;;;20.00;99.90;;;;;;5076386;28;20044;-91
2022/08/17 06:57:36;;;;;;;0.20;0.20;;;19.90;99.90;;;;;;5094666;28;20502;-91
2022/08/17 07:00:13;;;;;;;0.10;0.10;;;20.00;99.90;;;;;;5077347;28;20058;-93
2022/08/17 07:02:46;;;;;;;0.20;0.20;;;20.00;99.90;;;;;;5094574;28;20051;-94
2022/08/17 07:05:15;;;;;;;0.20;0.20;;;20.00;99.90;;;;;;5094083;28;20044;-93
2022/08/17 07:08:05;;;;;;;0.20;0.20;;;20.00;99.90;;;;;;5094726;28;20055;-93
2022/08/17 07:10:46;;;;;;;0.20;0.20;;;20.00;99.90;;;;;;5093005;28;20059;-91
2022/08/17 07:13:32;;;;;;;0.20;0.20;;;20.00;99.90;;;;;;5075831;28;20058;-91
2022/08/17 07:16:26;;;;;;;0.15;0.15;;;20.00;99.90;;;;;;5076526;28;20081;-91
2022/08/17 07:18:55;;;;;;;0.20;0.20;;;20.00;99.90;;;;;;5093816;28;20099;-92
2022/08/17 07:21:45;;;;;;;0.10;0.10;;;20.10;99.90;;;;;;5094527;28;20075;-92
2022/08/17 07:24:32;;;;;;;0.20;0.20;;;20.10;99.90;;;;;;5076745;28;20073;-91
2022/08/17 07:27:12;;;;;;;0.20;0.20;;;20.10;99.90;;;;;;5093537;28;20139;-92
2022/08/17 07:29:42;;;;;;;0.20;0.20;;;20.20;99.90;;;;;;5079638;28;20570;-91
2022/08/17 07:32:09;;;;;;;0.20;0.20;;;20.20;99.90;;;;;;5095788;28;20418;-91
2022/08/17 07:34:59;;;;;;;0.20;0.20;;;20.30;99.90;;;;;;5095272;28;20036;-89
2022/08/17 07:37:25;;;;;;;0.10;0.10;;;20.30;99.90;;;;;;5078441;28;20048;-91
2022/08/17 07:39:51;;;;;;;0.10;0.10;;;20.40;99.90;;;;;;5096496;28;20058;-90
2022/08/17 07:42:17;;;;;;;0.20;0.20;;;20.40;99.90;;;;;;5113904;28;20055;-91
2022/08/17 07:44:52;;;;;;;0.20;0.20;;;20.40;99.90;;;;;;5080316;28;20063;-92
2022/08/17 07:50:28;;;;;;;0.20;0.20;;;20.50;99.90;;;;;;5075755;28;20052;-91
2022/08/17 07:52:53;;;;;;;0.20;0.20;;;20.60;99.90;;;;;;5082383;28;20048;-91
2022/08/17 07:55:29;;;;;;;0.20;0.20;;;20.60;99.90;;;;;;5100811;28;20036;-91
2022/08/17 07:57:57;;;;;;;0.20;0.20;;;20.70;99.90;;;;;;5099289;28;20036;-91
2022/08/17 08:00:23;;;;;;;0.20;0.20;;;20.70;99.90;;;;;;5096409;28;20028;-90
2022/08/17 08:03:12;;;;;;;0.20;0.20;;;20.70;99.90;;;;;;5078179;28;20080;-91
2022/08/17 08:05:51;;;;;;;0.10;0.10;;;20.80;99.90;;;;;;5086009;28;20052;-90
2022/08/17 08:08:31;;;;;;;0.20;0.20;;;20.80;99.90;;;;;;5095056;28;20032;-87
2022/08/17 08:11:01;;;;;;;0.20;0.20;;;20.90;99.90;;;;;;5097161;28;20158;-90
2022/08/17 08:13:29;;;;;;;0.20;0.20;;;20.90;99.90;;;;;;5096843;28;20087;-89
2022/08/17 08:16:23;;;;;;;0.20;0.20;;;21.00;99.90;;;;;;5094035;28;20066;-93
2022/08/17 08:18:55;;;;;;;0.20;0.20;;;21.10;99.90;;;;;;5093135;28;20134;-89
2022/08/17 08:21:47;;;;;;;0.20;0.20;;;21.10;99.90;;;;;;5093847;28;20109;-90
2022/08/17 08:24:45;;;;;;;0.20;0.20;;;21.20;99.90;;;;;;5098576;28;20055;-87
2022/08/17 08:27:41;;;;;;;0.15;0.15;;;21.20;99.90;;;;;;5079691;28;20056;-90
2022/08/17 08:30:22;;;;;;;0.15;0.15;;;21.30;99.90;;;;;;5076663;28;20090;-89
2022/08/17 08:33:22;;;;;;;0.20;0.20;;;21.30;99.90;;;;;;5096487;28;20048;-89
2022/08/17 08:36:09;;;;;;;0.20;0.20;;;21.40;99.90;;;;;;5101733;28;20089;-91
2022/08/17 08:39:00;;;;;;;0.20;0.20;;;21.50;99.90;;;;;;5079482;28;20055;-92
2022/08/17 08:41:43;;;;;;;0.30;0.30;;;21.60;99.90;;;;;;5097566;28;20040;-92
2022/08/17 08:44:36;;;;;;;0.17;0.17;;;21.70;99.90;;;;;;5078345;28;20075;-92
2022/08/17 08:47:41;;;;;;;0.20;0.20;;;21.80;99.90;;;;;;5097673;28;20081;-93
2022/08/17 08:50:28;;;;;;;0.20;0.20;;;21.90;99.90;;;;;;5035426;28;20052;-91
2022/08/17 08:53:13;;;;;;;0.20;0.20;;;21.90;99.90;;;;;;5098242;28;20426;-93
2022/08/17 08:55:51;;;;;;;0.20;0.20;;;22.00;99.90;;;;;;5079511;28;20052;-92
2022/08/17 08:58:39;;;;;;;0.20;0.20;;;22.00;99.90;;;;;;5097369;28;20063;-91
2022/08/17 09:01:19;;;;;;;0.20;0.20;;;22.10;99.90;;;;;;5098070;28;20039;-91
2022/08/17 09:04:29;;;;;;;0.13;0.13;;;22.10;99.90;;;;;;5079558;28;20047;-91
2022/08/17 09:07:11;;;;;;;0.20;0.20;;;22.10;99.90;;;;;;5065719;28;20052;-89
2022/08/17 09:10:04;;;;;;;0.20;0.20;;;22.10;99.90;;;;;;5105813;28;20038;-92
2022/08/17 09:12:52;;;;;;;0.20;0.20;;;22.10;99.90;;;;;;5119635;28;20048;-89
2022/08/17 09:15:29;;;;;;;0.20;0.20;;;22.20;99.90;;;;;;5080241;28;20048;-91
2022/08/17 09:18:19;;;;;;;0.20;0.20;;;22.20;99.90;;;;;;5090102;28;20048;-92
2022/08/17 09:20:58;;;;;;;0.20;0.20;;;22.20;99.90;;;;;;5096282;28;20048;-92
2022/08/17 09:23:50;;;;;;;0.20;0.20;;;22.20;99.90;;;;;;5078016;28;20054;-91
2022/08/17 09:26:23;;;;;;;0.20;0.20;;;22.20;99.90;;;;;;5101422;28;20052;-91
2022/08/17 09:29:00;;;;;;;0.20;0.20;;;22.20;99.90;;;;;;5099752;28;20062;-91
2022/08/17 09:31:37;;;;;;;0.20;0.20;;;22.20;99.90;;;;;;5116575;28;20143;-92
2022/08/17 09:34:09;;;;;;;0.20;0.20;;;22.30;99.90;;;;;;5101557;28;20073;-91
2022/08/17 09:36:49;;;;;;;0.20;0.20;;;22.30;99.90;;;;;;5117870;28;20039;-91
2022/08/17 09:39:41;;;;;;;0.20;0.20;;;22.40;99.90;;;;;;5100735;28;20395;-93
2022/08/17 09:42:25;;;;;;;0.20;0.20;;;22.40;99.90;;;;;;5111383;28;20130;-94
2022/08/17 09:45:28;;;;;;;0.20;0.20;;;22.40;99.90;;;;;;5099112;28;20043;-90
2022/08/17 09:48:41;;;;;;;0.20;0.20;;;22.50;99.90;;;;;;5100770;28;20153;-92
2022/08/17 09:51:19;;;;;;;0.20;0.20;;;22.50;99.90;;;;;;5055194;28;20120;-89
2022/08/17 09:53:45;;;;;;;0.20;0.20;;;22.60;99.90;;;;;;5054220;28;20103;-92
2022/08/17 09:56:25;;;;;;;0.20;0.20;;;22.60;99.90;;;;;;5089826;28;20407;-92
2022/08/17 09:59:10;;;;;;;0.20;0.20;;;22.70;99.90;;;;;;5124961;28;20028;-89
2022/08/17 10:02:12;;;;;;;0.10;0.10;;;22.70;99.90;;;;;;5125534;28;20046;-90
2022/08/17 10:05:04;;;;;;;0.20;0.20;;;22.70;99.90;;;;;;5098806;28;20106;-90
2022/08/17 10:07:39;;;;;;;0.17;0.17;;;22.70;99.90;;;;;;5105583;28;20050;-91
2022/08/17 10:10:23;;;;;;;0.10;0.10;;;22.70;99.90;;;;;;5097975;28;20047;-92
2022/08/17 10:13:09;;;;;;;0.20;0.20;;;22.70;99.90;;;;;;5118442;28;20061;-93
2022/08/17 10:15:52;;;;;;;0.20;0.20;;;22.70;99.90;;;;;;5117705;28;20078;-91
2022/08/17 10:18:20;;;;;;;0.20;0.20;;;22.70;99.90;;;;;;5116578;28;20049;-93
2022/08/17 10:27:25;;;;;;;0.20;0.20;;;22.60;99.90;;;;;;5098507;28;20395;-92
2022/08/17 10:29:53;;;;;;;0.20;0.20;;;22.60;99.90;;;;;;5115433;28;20405;-92
2022/08/17 10:32:36;;;;;;;0.20;0.20;;;22.60;99.90;;;;;;5098724;28;20063;-92
2022/08/17 10:35:24;;;;;;;0.20;0.20;;;22.60;99.90;;;;;;5098394;28;20055;-91
2022/08/17 10:38:19;;;;;;;0.20;0.20;;;22.60;99.90;;;;;;5104505;28;20123;-91
2022/08/17 10:41:05;;;;;;;0.20;0.20;;;22.60;99.90;;;;;;5086864;28;20069;-91
2022/08/17 10:43:51;;;;;;;0.20;0.20;;;22.70;99.90;;;;;;5118165;28;20027;-91
2022/08/17 10:46:32;;;;;;;0.17;0.17;;;22.70;99.90;;;;;;5080161;28;20416;-90
2022/08/17 10:49:16;;;;;;;0.20;0.20;;;22.70;99.90;;;;;;5095506;28;20055;-92
2022/08/17 10:51:46;;;;;;;0.20;0.20;;;22.70;99.90;;;;;;5077228;28;20079;-91
2022/08/17 10:54:23;;;;;;;0.20;0.20;;;22.80;99.90;;;;;;5078535;28;20044;-90
2022/08/17 10:56:56;;;;;;;0.20;0.20;;;22.80;99.90;;;;;;5094102;28;20040;-91
2022/08/17 10:59:34;;;;;;;0.20;0.20;;;22.80;99.90;;;;;;5077208;28;20064;-93
2022/08/17 11:02:18;;;;;;;0.20;0.20;;;22.90;99.90;;;;;;5078410;28;20048;-93
2022/08/17 11:04:49;;;;;;;0.20;0.20;;;22.90;99.90;;;;;;5095043;28;20048;-92
2022/08/17 11:07:37;;;;;;;0.20;0.20;;;22.90;99.90;;;;;;5076884;28;20364;-92
2022/08/17 11:10:36;;;;;;;0.20;0.20;;;23.00;99.90;;;;;;5093903;28;20051;-91
2022/08/17 11:13:30;;;;;;;0.20;0.20;;;23.00;99.90;;;;;;5096910;28;20047;-92
2022/08/17 11:15:58;;;;;;;0.20;0.20;;;23.00;99.90;;;;;;5095722;28;20043;-91
2022/08/17 11:19:04;;;;;;;0.20;0.20;;;23.10;99.90;;;;;;5077493;28;20069;-92
2022/08/17 11:21:42;;;;;;;0.20;0.20;;;23.10;99.90;;;;;;5096056;28;20048;-93
2022/08/17 11:24:38;;;;;;;0.20;0.20;;;23.20;99.90;;;;;;5082299;28;20051;-91
2022/08/17 11:27:32;;;;;;;0.20;0.20;;;23.40;99.90;;;;;;5120222;28;20054;-90
2022/08/17 11:30:07;;;;;;;0.20;0.20;;;23.40;99.90;;;;;;5114856;28;20130;-91
2022/08/17 11:32:44;;;;;;;0.20;0.20;;;23.50;99.90;;;;;;5115254;28;20059;-93
2022/08/17 11:35:23;;;;;;;0.20;0.20;;;23.60;99.90;;;;;;5114640;28;20043;-93
2022/08/17 11:38:15;;;;;;;0.20;0.20;;;23.60;99.90;;;;;;5097361;28;20126;-92
2022/08/17 11:41:02;;;;;;;0.20;0.20;;;23.70;99.90;;;;;;5114422;28;20096;-93
2022/08/17 11:43:46;;;;;;;0.20;0.20;;;23.70;99.90;;;;;;5114806;28;20058;-93
2022/08/17 11:51:32;;;;;;;0.20;0.20;;;23.80;99.90;;;;;;5096100;28;20044;-93
2022/08/17 11:52:47;;;;;;;0.20;0.20;;;23.90;99.90;;;;;;5053693;28;20048;-93
2022/08/17 11:55:30;;;;;;;0.20;0.20;;;23.90;99.90;;;;;;5113716;28;20071;-94
2022/08/17 11:58:03;;;;;;;0.20;0.20;;;24.00;99.90;;;;;;5098182;28;20047;-94
2022/08/17 12:00:44;;;;;;;0.20;0.20;;;24.00;99.90;;;;;;5099667;28;20056;-94
2022/08/17 12:03:25;;;;;;;0.20;0.20;;;24.00;99.90;;;;;;5101156;28;20077;-93
2022/08/17 12:06:02;;;;;;;0.20;0.20;;;24.00;99.90;;;;;;5107592;28;20044;-94
2022/08/17 12:08:33;;;;;;;0.20;0.20;;;24.00;99.90;;;;;;5111816;28;20095;-94
2022/08/17 12:11:07;;;;;;;0.20;0.20;;;24.00;99.90;;;;;;5086813;28;20081;-90
2022/08/17 12:13:47;;;;;;;0.20;0.20;;;23.90;99.90;;;;;;5103234;28;20060;-93
2022/08/17 12:16:16;;;;;;;0.20;0.20;;;23.90;99.90;;;;;;5093238;28;20058;-92
2022/08/17 12:18:52;;;;;;;0.20;0.20;;;24.00;99.90;;;;;;5081330;28;20048;-91
2022/08/17 12:21:45;;;;;;;0.20;0.20;;;24.10;99.90;;;;;;5084552;28;20115;-89
2022/08/17 12:24:38;;;;;;;0.20;0.20;;;24.10;99.90;;;;;;5098518;28;20044;-93
2022/08/17 12:27:08;;;;;;;0.20;0.20;;;24.20;99.90;;;;;;5098610;28;20437;-93
2022/08/17 12:29:35;;;;;;;0.10;0.10;;;24.20;99.90;;;;;;5099695;28;20050;-88
2022/08/17 12:32:04;;;;;;;0.20;0.20;;;24.20;99.90;;;;;;5080766;28;20128;-93
2022/08/17 12:34:39;;;;;;;0.20;0.20;;;24.20;99.90;;;;;;5081124;28;20119;-94
2022/08/17 12:37:14;;;;;;;0.20;0.20;;;24.20;99.90;;;;;;5080956;28;20044;-93
2022/08/17 12:40:05;;;;;;;0.20;0.20;;;24.20;99.90;;;;;;5097325;28;20040;-93
2022/08/17 12:42:38;;;;;;;0.20;0.20;;;24.20;99.90;;;;;;5080425;28;20040;-91
2022/08/17 12:45:22;;;;;;;0.20;0.20;;;24.20;99.90;;;;;;5097915;28;20044;-94
2022/08/17 12:47:48;;;;;;;0.20;0.20;;;24.10;99.90;;;;;;5098761;28;20040;-90
2022/08/17 12:50:14;;;;;;;0.20;0.20;;;24.10;99.90;;;;;;5084323;28;20051;-93
2022/08/17 12:52:41;;;;;;;0.20;0.20;;;24.10;99.90;;;;;;5082568;28;20048;-94
2022/08/17 12:55:21;;;;;;;0.20;0.20;;;24.10;99.90;;;;;;5079738;28;20146;-94
2022/08/17 12:57:57;;;;;;;0.20;0.20;;;24.00;99.90;;;;;;5098229;28;20044;-93
2022/08/17 13:00:30;;;;;;;0.20;0.20;;;23.90;99.90;;;;;;5079498;28;20040;-89
2022/08/17 13:03:07;;;;;;;0.20;0.20;;;23.90;99.90;;;;;;5079053;28;20383;-92
2022/08/17 13:05:36;;;;;;;0.20;0.20;;;23.90;99.90;;;;;;5097853;28;20066;-91
2022/08/17 13:08:34;;;;;;;0.20;0.20;;;23.80;99.90;;;;;;5098597;28;20044;-93
2022/08/17 13:11:02;;;;;;;0.20;0.20;;;23.80;99.90;;;;;;5078794;28;20056;-91
2022/08/17 13:13:32;;;;;;;0.20;0.20;;;23.90;99.90;;;;;;5096587;28;20130;-92
2022/08/17 13:16:01;;;;;;;0.20;0.20;;;23.90;99.90;;;;;;5079799;28;20048;-90
2022/08/17 13:18:38;;;;;;;0.20;0.20;;;23.90;99.90;;;;;;5078303;28;20135;-92
2022/08/17 13:21:06;;;;;;;0.20;0.20;;;23.80;99.90;;;;;;5079234;28;20048;-91
2022/08/17 13:23:32;;;;;;;0.20;0.20;;;23.80;99.90;;;;;;5096729;28;20040;-95
2022/08/17 13:26:13;;;;;;;0.20;0.20;;;23.80;99.90;;;;;;5099125;28;20077;-93
2022/08/17 13:28:47;;;;;;;0.20;0.20;;;23.70;99.90;;;;;;5099165;28;20478;-90
2022/08/17 13:31:32;;;;;;;0.20;0.20;;;23.70;99.90;;;;;;5126370;28;20111;-93
2022/08/17 13:34:11;;;;;;;0.20;0.20;;;23.70;99.90;;;;;;5126116;28;20406;-91
2022/08/17 13:36:37;;;;;;;0.20;0.20;;;23.70;99.90;;;;;;5099884;28;20050;-92
2022/08/17 13:39:17;;;;;;;0.20;0.20;;;23.70;99.90;;;;;;5099041;28;20031;-90
2022/08/17 13:41:44;;;;;;;0.20;0.20;;;23.70;99.90;;;;;;5121422;28;20099;-90
2022/08/17 13:44:32;;;;;;;0.20;0.20;;;23.70;99.90;;;;;;5138894;28;20039;-93
2022/08/17 13:46:58;;;;;;;0.20;0.20;;;23.70;99.90;;;;;;5109098;28;20125;-94
2022/08/17 13:49:28;;;;;;;0.20;0.20;;;23.60;99.90;;;;;;5117820;28;20126;-90
2022/08/17 13:51:54;;;;;;;0.20;0.20;;;23.60;99.90;;;;;;5116272;28;20043;-91
2022/08/17 13:54:25;;;;;;;0.20;0.20;;;23.60;99.90;;;;;;5116720;28;20532;-93
2022/08/17 13:57:16;;;;;;;0.20;0.20;;;23.60;99.90;;;;;;5098951;28;20052;-93